createdAt,value
2022-09-09T00:00:28.180Z,14.16
2022-09-09T00:05:37.389Z,14.39
2022-09-09T00:10:40.618Z,14.60
2022-09-09T00:15:55.829Z,14.53
2022-09-09T00:21:13.883Z,14.32
2022-09-09T00:26:39.665Z,14.20
2022-09-09T00:31:41.583Z,14.07
2022-09-09T00:36:45.349Z,14.23
2022-09-09T00:42:09.378Z,14.24
2022-09-09T00:47:31.447Z,14.01
2022-09-09T00:52:55.594Z,13.85
2022-09-09T00:57:57.381Z,13.80
2022-09-09T01:03:36.824Z,13.66
2022-09-09T01:09:09.642Z,13.61
2022-09-09T01:14:26.378Z,13.70
2022-09-09T01:19:46.875Z,13.98
2022-09-09T01:25:29.945Z,14.20
2022-09-09T01:30:42.995Z,14.11
2022-09-09T01:36:03.086Z,13.84
2022-09-09T01:41:10.563Z,13.74
2022-09-09T01:46:23.930Z,14.01
2022-09-09T01:51:26.414Z,14.17
2022-09-09T01:56:49.889Z,14.18
2022-09-09T02:02:14.591Z,14.04
2022-09-09T02:07:41.623Z,13.86
2022-09-09T02:13:24.547Z,13.95
2022-09-09T02:18:46.015Z,13.99
2022-09-09T02:23:53.003Z,13.97
2022-09-09T02:28:58.923Z,13.88
2022-09-09T02:34:02.603Z,13.77
2022-09-09T02:39:07.304Z,13.85
2022-09-09T02:44:20.163Z,13.79
2022-09-09T02:49:34.783Z,13.70
2022-09-09T02:54:42.040Z,13.64
2022-09-09T02:59:48.180Z,13.64
2022-09-09T03:04:52.751Z,13.77
2022-09-09T03:09:55.900Z,13.84
2022-09-09T03:15:00.524Z,13.82
2022-09-09T03:20:06.494Z,13.72
2022-09-09T03:25:09.255Z,13.69
2022-09-09T03:30:12.050Z,13.85
2022-09-09T03:35:13.917Z,14.00
2022-09-09T03:40:15.929Z,13.90
2022-09-09T03:45:21.041Z,13.87
2022-09-09T03:50:23.007Z,13.80
2022-09-09T03:55:24.677Z,13.72
2022-09-09T04:00:27.599Z,13.73
2022-09-09T04:05:29.684Z,13.84
2022-09-09T04:10:32.499Z,13.83
2022-09-09T04:15:36.554Z,13.91
2022-09-09T04:20:39.901Z,14.02
2022-09-09T04:25:47.768Z,13.99
2022-09-09T04:30:50.185Z,13.82
2022-09-09T04:35:54.666Z,13.90
2022-09-09T04:40:58.455Z,13.71
2022-09-09T04:46:00.970Z,13.49
2022-09-09T04:51:10.255Z,13.55
2022-09-09T04:56:14.847Z,13.60
2022-09-09T05:01:23.125Z,13.64
2022-09-09T05:06:26.335Z,13.74
2022-09-09T05:11:33.333Z,13.84
2022-09-09T05:16:54.862Z,13.85
2022-09-09T05:21:58.092Z,14.01
2022-09-09T05:27:07.895Z,14.16
2022-09-09T05:32:15.171Z,14.32
2022-09-09T05:37:19.301Z,14.47
2022-09-09T05:42:21.100Z,14.57
2022-09-09T05:47:22.793Z,14.92
2022-09-09T05:52:26.602Z,15.75
2022-09-09T05:57:28.534Z,16.23
2022-09-09T06:02:30.928Z,16.56
2022-09-09T06:07:32.940Z,16.84
2022-09-09T06:12:34.624Z,17.05
2022-09-09T06:17:37.382Z,17.22
2022-09-09T06:22:41.727Z,17.01
2022-09-09T06:27:43.525Z,16.58
2022-09-09T06:32:46.114Z,15.95
2022-09-09T06:37:49.758Z,15.18
2022-09-09T06:42:54.063Z,15.03
2022-09-09T06:48:14.187Z,14.96
2022-09-09T06:53:18.391Z,15.13
2022-09-09T06:58:20.202Z,15.21
2022-09-09T07:03:22.159Z,15.18
2022-09-09T07:08:25.757Z,15.17
2022-09-09T07:13:28.245Z,15.21
2022-09-09T07:18:31.762Z,15.29
2022-09-09T07:23:36.271Z,15.53
2022-09-09T07:28:39.293Z,15.64
2022-09-09T07:33:41.884Z,15.59
2022-09-09T07:38:52.180Z,15.58
2022-09-09T07:43:56.124Z,15.71
2022-09-09T07:48:59.121Z,15.86
2022-09-09T07:54:10.279Z,15.89
2022-09-09T07:59:14.651Z,15.83
2022-09-09T08:04:20.213Z,15.99
2022-09-09T08:09:26.108Z,16.15
2022-09-09T08:14:28.245Z,16.25
2022-09-09T08:19:34.930Z,16.40
2022-09-09T08:24:37.310Z,16.53
2022-09-09T08:29:39.059Z,16.67
2022-09-09T08:34:46.547Z,16.88
2022-09-09T08:39:54.433Z,16.93
2022-09-09T08:45:22.126Z,17.01
2022-09-09T08:50:32.091Z,17.21
2022-09-09T08:56:00.249Z,17.53
2022-09-09T09:01:30.654Z,17.84
2022-09-09T09:06:55.861Z,18.10
2022-09-09T09:12:03.509Z,18.34
2022-09-09T09:17:14.117Z,18.56
2022-09-09T09:22:48.702Z,18.66
2022-09-09T09:28:12.843Z,18.73
2022-09-09T09:33:53.852Z,18.66
2022-09-09T09:44:31.881Z,18.74
2022-09-09T09:50:02.135Z,18.77
2022-09-09T09:55:15.298Z,18.83
2022-09-09T10:00:23.083Z,18.94
2022-09-09T10:05:36.825Z,19.19
2022-09-09T10:11:06.803Z,19.45
2022-09-09T10:16:21.905Z,19.66
2022-09-09T10:21:33.344Z,19.87
2022-09-09T10:26:46.400Z,20.01
2022-09-09T10:32:05.424Z,20.08
2022-09-09T10:37:26.382Z,20.06
2022-09-09T10:42:32.454Z,20.07
2022-09-09T10:47:45.600Z,20.09
2022-09-09T10:53:03.588Z,20.17
2022-09-09T10:58:08.408Z,20.25
2022-09-09T11:03:20.900Z,20.36
2022-09-09T11:08:30.983Z,20.46
2022-09-09T11:13:52.528Z,20.53
2022-09-09T11:19:04.254Z,20.54
2022-09-09T11:24:14.241Z,20.55
2022-09-09T11:29:41.827Z,20.57
2022-09-09T11:34:56.228Z,20.63
2022-09-09T11:40:20.185Z,20.69
2022-09-09T11:45:26.773Z,20.67
2022-09-09T11:50:31.419Z,20.62
2022-09-09T11:55:35.670Z,20.62
2022-09-09T12:00:41.282Z,20.64
2022-09-09T12:05:46.935Z,20.75
2022-09-09T12:10:58.125Z,20.82
2022-09-09T12:16:01.711Z,20.88
2022-09-09T12:21:13.311Z,21.03
2022-09-09T12:26:32.068Z,21.09
2022-09-09T12:31:48.542Z,21.12
2022-09-09T12:37:07.306Z,21.28
2022-09-09T12:42:23.281Z,21.40
2022-09-09T12:47:35.996Z,21.41
2022-09-09T12:52:39.849Z,21.52
2022-09-09T12:57:41.574Z,21.66
2022-09-09T13:02:48.877Z,21.70
2022-09-09T13:07:51.002Z,21.64
2022-09-09T13:12:52.586Z,21.85
2022-09-09T13:17:58.157Z,21.91
2022-09-09T13:22:59.923Z,21.75
2022-09-09T13:28:04.844Z,21.78
2022-09-09T13:33:13.143Z,21.94
2022-09-09T13:38:16.270Z,22.29
2022-09-09T13:43:22.773Z,22.77
2022-09-09T13:48:25.617Z,22.70
2022-09-09T13:53:27.795Z,22.23
2022-09-09T13:58:30.099Z,21.95
2022-09-09T14:03:31.884Z,21.84
2022-09-09T14:08:38.098Z,21.76
2022-09-09T14:13:40.141Z,22.08
2022-09-09T14:18:41.836Z,22.73
2022-09-09T14:23:43.629Z,23.08
2022-09-09T14:28:54.721Z,22.93
2022-09-09T14:33:57.140Z,22.47
2022-09-09T14:38:59.457Z,22.11
2022-09-09T14:44:01.289Z,21.86
2022-09-09T14:49:03.085Z,21.63
2022-09-09T14:54:05.028Z,21.51
2022-09-09T14:59:06.681Z,21.42
2022-09-09T15:04:08.691Z,21.31
2022-09-09T15:09:10.779Z,21.18
2022-09-09T15:14:13.139Z,21.09
2022-09-09T15:19:14.859Z,20.98
2022-09-09T15:24:17.049Z,20.86
2022-09-09T15:29:19.887Z,20.84
2022-09-09T15:34:22.359Z,20.99
2022-09-09T15:39:24.054Z,21.58
2022-09-09T15:44:26.435Z,22.16
2022-09-09T15:49:28.793Z,22.32
2022-09-09T15:54:35.214Z,22.31
2022-09-09T15:59:36.843Z,22.27
2022-09-09T16:04:38.566Z,22.21
2022-09-09T16:09:40.632Z,22.12
2022-09-09T16:14:42.367Z,21.95
2022-09-09T16:19:44.396Z,22.06
2022-09-09T16:24:46.105Z,21.64
2022-09-09T16:29:47.819Z,21.03
2022-09-09T16:34:49.437Z,20.68
2022-09-09T16:39:52.037Z,20.51
2022-09-09T16:44:53.592Z,20.20
2022-09-09T16:49:55.444Z,19.76
2022-09-09T16:54:57.253Z,19.58
2022-09-09T17:00:00.272Z,19.43
2022-09-09T17:05:01.998Z,19.28
2022-09-09T17:10:03.980Z,19.02
2022-09-09T17:15:06.791Z,18.54
2022-09-09T17:20:09.696Z,18.23
2022-09-09T17:25:11.489Z,18.26
2022-09-09T17:30:13.554Z,18.35
2022-09-09T17:35:15.261Z,18.29
2022-09-09T17:40:17.000Z,18.32
2022-09-09T17:45:18.982Z,18.06
2022-09-09T17:50:20.571Z,18.21
2022-09-09T17:55:22.358Z,18.26
2022-09-09T18:00:24.343Z,18.19
2022-09-09T18:05:26.029Z,18.01
2022-09-09T18:10:28.246Z,17.66
2022-09-09T18:15:48.654Z,17.63
2022-09-09T18:21:08.565Z,17.53
2022-09-09T18:26:13.477Z,17.29
2022-09-09T18:31:17.083Z,16.83
2022-09-09T18:36:22.758Z,16.59
2022-09-09T18:41:28.435Z,16.59
2022-09-09T18:46:33.009Z,16.61
2022-09-09T18:51:36.958Z,16.71
2022-09-09T18:56:39.092Z,16.67
2022-09-09T19:01:41.134Z,16.65
2022-09-09T19:06:46.427Z,16.78
2022-09-09T19:11:48.034Z,16.68
2022-09-09T19:16:49.952Z,16.71
2022-09-09T19:21:51.983Z,16.86
2022-09-09T19:26:57.883Z,16.82
2022-09-09T19:32:36.841Z,16.65
2022-09-09T19:37:24.159Z,16.57
2022-09-09T19:42:25.836Z,16.76
2022-09-09T19:47:28.068Z,16.79
2022-09-09T19:52:55.762Z,16.68
2022-09-09T19:57:57.445Z,16.56
2022-09-09T20:03:18.007Z,16.47
2022-09-09T20:08:20.633Z,16.61
2022-09-09T20:13:22.748Z,16.54
2022-09-09T20:18:27.843Z,16.31
2022-09-09T20:23:30.412Z,16.37
2022-09-09T20:28:35.554Z,16.55
2022-09-09T20:33:38.393Z,16.58
2022-09-09T20:38:43.822Z,16.41
2022-09-09T20:43:49.439Z,16.13
2022-09-09T20:48:51.929Z,16.18
2022-09-09T20:53:56.953Z,16.36
2022-09-09T20:58:58.799Z,16.35
2022-09-09T21:04:00.563Z,16.12
2022-09-09T21:09:03.083Z,16.07
2022-09-09T21:14:04.962Z,15.93
2022-09-09T21:19:06.800Z,15.47
2022-09-09T21:24:09.781Z,15.33
2022-09-09T21:29:12.862Z,15.22
2022-09-09T21:34:15.308Z,15.09
2022-09-09T21:39:17.035Z,14.98
2022-09-09T21:44:19.182Z,14.87
2022-09-09T21:49:21.452Z,14.82
2022-09-09T21:54:23.089Z,14.66
2022-09-09T21:59:26.914Z,14.60
2022-09-09T22:04:28.756Z,14.67
2022-09-09T22:09:30.570Z,14.72
2022-09-09T22:14:33.130Z,14.72
2022-09-09T22:19:34.949Z,14.77
2022-09-09T22:24:38.394Z,14.97
2022-09-09T22:29:40.507Z,15.22
2022-09-09T22:34:42.197Z,15.15
2022-09-09T22:39:43.955Z,14.93
2022-09-09T22:44:45.640Z,14.89
2022-09-09T22:49:47.277Z,14.93
2022-09-09T22:54:49.032Z,15.05
2022-09-09T22:59:50.679Z,15.18
2022-09-09T23:04:52.350Z,15.25
2022-09-09T23:09:54.051Z,15.32
2022-09-09T23:14:56.791Z,15.42
2022-09-09T23:19:58.465Z,15.40
2022-09-09T23:25:01.680Z,15.21
2022-09-09T23:30:04.627Z,15.04
2022-09-09T23:35:07.391Z,14.94
2022-09-09T23:40:09.534Z,15.08
2022-09-09T23:45:11.175Z,15.07
2022-09-09T23:50:12.962Z,15.17
2022-09-09T23:55:14.748Z,15.32
